Nichols, Wisconsin
Current Conditions -  °F | °C
As of 3:35 PM on Friday 31 Oct 2014 (Local Time) from KCLI Reporting Station
Overcast Overcast  
Wind Chill: -2°   Ceiling: 4800
Heat Index:   Visibility: 10mi
Dew Point: -7°   Wind: 15mph
Humidity: 48%   Direction: 10°N
Pressure: 30.36"   Gusts: 22mph
Location:  44.56°N, 88.46°W
Report Text: KCLI 312035Z AUTO 01013G19KT 10SM OVC048 03/M07 A3036 RMK AO2
Loading
Personal Weather Stations






























Interactive Weather Map
Tropical Storm Tracking
New forecast layout! Learn more

10-Day Weather Forecast

Advertisements
Track Severe Weather on mobile